Time;durP1;ratioP1;P1;durP2;ratioP2;P2;SDS_P1;SDS_P2;PMS_P1;PMS_P2;Temp;Humidity;BMP_temperature;BMP_pressure;BME280_temperature;BME280_humidity;BME280_pressure;Samples;Min_cycle;Max_cycle;Signal;HPM_P1;HPM_P2
2021/06/01 00:01:26;;;;;;;;;;;;;;;;;;5018980;28;20323;-80
2021/06/01 00:03:54;;;;;;;;;;;;;;;;;;5001852;28;19929;-79
2021/06/01 00:06:23;;;;;;;;;;;;;;;;;;5022196;28;19929;-78
2021/06/01 00:08:51;;;;;;;;;;;;;;;;;;5000085;28;20271;-79
2021/06/01 00:11:19;;;;;;;;;;;;;;;;;;4985015;28;19928;-80
2021/06/01 00:13:47;;;;;;;;;;;;;;;;;;4988134;28;19922;-80
2021/06/01 00:16:15;;;;;;;;;;;;;;;;;;5005814;28;19929;-80
2021/06/01 00:18:44;;;;;;;;;;;;;;;;;;5004223;28;20367;-80
2021/06/01 00:21:12;;;;;;;;;;;;;;;;;;5017312;28;19922;-80
2021/06/01 00:23:41;;;;;;;;;;;;;;;;;;5001595;28;19922;-79
2021/06/01 00:26:10;;;;;;;;;;;;;;;;;;4999674;28;19921;-80
2021/06/01 00:28:38;;;;;;;;;;;;;;;;;;5004917;28;20314;-80
2021/06/01 00:31:06;;;;;;;;;;;;;;;;;;4988902;28;19928;-80
2021/06/01 00:33:34;;;;;;;;;;;;;;;;;;5008445;28;20527;-80
2021/06/01 00:36:02;;;;;;;;;;;;;;;;;;4988830;28;19925;-80
2021/06/01 00:38:30;;;;;;;;;;;;;;;;;;5022081;28;19921;-79
2021/06/01 00:40:59;;;;;;;;;;;;;;;;;;4985465;28;19925;-79
2021/06/01 00:43:27;;;;;;;;;;;;;;;;;;4998696;28;19928;-81
2021/06/01 00:45:55;;;;;;;;;;;;;;;;;;5011839;28;19937;-82
2021/06/01 00:48:23;;;;;;;;;;;;;;;;;;5007594;28;19925;-80
2021/06/01 00:50:51;;;;;;;;;;;;;;;;;;5004931;28;19929;-80
2021/06/01 00:53:19;;;;;;;;;;;;;;;;;;4988776;28;20000;-78
2021/06/01 00:55:47;;;;;;;;;;;;;;;;;;5004998;28;19925;-78
2021/06/01 00:58:16;;;;;;;;;;;;;;;;;;5013805;28;19936;-79
2021/06/01 01:03:26;;;;;;;;;;;;;;;;;;4973566;28;20908;-80
2021/06/01 01:06:02;;;;;;;;;;;;;;;;;;5010302;28;19928;-80
2021/06/01 01:08:46;;;;;;;;;;;;;;;;;;4983587;28;20368;-79
2021/06/01 01:11:16;;;;;;;;;;;;;;;;;;4985658;28;20243;-79
2021/06/01 01:13:48;;;;;;;;;;;;;;;;;;5009602;28;20205;-81
2021/06/01 01:16:15;;;;;;;;;;;;;;;;;;4998746;28;19928;-81
2021/06/01 01:18:45;;;;;;;;;;;;;;;;;;4989405;28;20272;-80
2021/06/01 01:21:14;;;;;;;;;;;;;;;;;;4979808;28;20331;-79
2021/06/01 01:23:44;;;;;;;;;;;;;;;;;;5001714;28;19929;-81
2021/06/01 01:26:14;;;;;;;;;;;;;;;;;;4999949;28;19948;-79
2021/06/01 01:28:44;;;;;;;;;;;;;;;;;;4981454;28;19929;-79
2021/06/01 01:31:14;;;;;;;;;;;;;;;;;;5008342;28;19929;-80
2021/06/01 01:33:44;;;;;;;;;;;;;;;;;;5002697;28;19928;-80
2021/06/01 01:36:12;;;;;;;;;;;;;;;;;;4993620;28;19932;-80
2021/06/01 01:38:40;;;;;;;;;;;;;;;;;;5000537;28;19928;-80
2021/06/01 01:41:10;;;;;;;;;;;;;;;;;;5008460;28;20379;-80
2021/06/01 01:43:38;;;;;;;;;;;;;;;;;;4980270;28;19926;-81
2021/06/01 01:46:09;;;;;;;;;;;;;;;;;;5002569;28;19921;-80
2021/06/01 01:51:26;;;;;;;;;;;;;;;;;;4996863;28;19921;-80
2021/06/01 01:53:54;;;;;;;;;;;;;;;;;;4998234;28;19926;-79
2021/06/01 01:56:23;;;;;;;;;;;;;;;;;;4983596;28;19929;-80
2021/06/01 01:58:51;;;;;;;;;;;;;;;;;;4989164;28;19922;-79
2021/06/01 02:01:19;;;;;;;;;;;;;;;;;;5002298;28;19930;-82
2021/06/01 02:03:47;;;;;;;;;;;;;;;;;;5016289;28;19921;-79
2021/06/01 02:06:15;;;;;;;;;;;;;;;;;;4985511;28;19928;-80
2021/06/01 02:08:44;;;;;;;;;;;;;;;;;;4978415;28;19928;-79
2021/06/01 02:11:12;;;;;;;;;;;;;;;;;;5000085;28;19936;-78
2021/06/01 02:13:41;;;;;;;;;;;;;;;;;;5018760;28;19922;-78
2021/06/01 02:16:09;;;;;;;;;;;;;;;;;;5019309;28;20319;-78
2021/06/01 02:18:37;;;;;;;;;;;;;;;;;;5005854;28;19922;-79
2021/06/01 02:21:08;;;;;;;;;;;;;;;;;;5006029;28;19921;-81
2021/06/01 02:23:49;;;;;;;;;;;;;;;;;;4981539;28;19929;-80
2021/06/01 02:26:20;;;;;;;;;;;;;;;;;;4999216;28;19932;-80
2021/06/01 02:28:49;;;;;;;;;;;;;;;;;;5003809;28;20189;-80
2021/06/01 02:31:17;;;;;;;;;;;;;;;;;;5009017;28;19921;-80
2021/06/01 02:33:46;;;;;;;;;;;;;;;;;;4996446;28;20299;-80
2021/06/01 02:36:15;;;;;;;;;;;;;;;;;;5015933;28;20322;-80
2021/06/01 02:38:43;;;;;;;;;;;;;;;;;;5001782;28;20355;-80
2021/06/01 02:41:11;;;;;;;;;;;;;;;;;;5002869;28;19928;-79
2021/06/01 02:43:40;;;;;;;;;;;;;;;;;;5004672;28;19932;-80
2021/06/01 02:46:08;;;;;;;;;;;;;;;;;;4996669;28;19932;-80
2021/06/01 02:48:36;;;;;;;;;;;;;;;;;;5002267;28;19921;-80
2021/06/01 02:51:15;;;;;;;;;;;;;;;;;;4985347;28;19925;-80
2021/06/01 02:53:43;;;;;;;;;;;;;;;;;;4993616;28;19926;-80
2021/06/01 02:56:11;;;;;;;;;;;;;;;;;;4993338;28;19940;-79
2021/06/01 02:58:41;;;;;;;;;;;;;;;;;;5004380;28;19928;-80
2021/06/01 03:01:11;;;;;;;;;;;;;;;;;;4982253;28;19921;-80
2021/06/01 03:03:43;;;;;;;;;;;;;;;;;;4987871;28;19921;-80
2021/06/01 03:06:11;;;;;;;;;;;;;;;;;;4991491;28;19932;-79
2021/06/01 03:08:39;;;;;;;;;;;;;;;;;;5005480;28;20279;-79
2021/06/01 03:11:07;;;;;;;;;;;;;;;;;;4999600;28;19930;-80
2021/06/01 03:13:35;;;;;;;;;;;;;;;;;;4989886;28;19928;-80
2021/06/01 03:16:05;;;;;;;;;;;;;;;;;;4984812;28;19925;-80
2021/06/01 03:18:33;;;;;;;;;;;;;;;;;;5002887;28;19921;-81
2021/06/01 03:21:00;;;;;;;;;;;;;;;;;;5006433;28;19952;-80
2021/06/01 03:23:29;;;;;;;;;;;;;;;;;;4985263;28;19921;-81
2021/06/01 03:25:56;;;;;;;;;;;;;;;;;;5003130;28;19921;-80
2021/06/01 03:28:24;;;;;;;;;;;;;;;;;;4988008;28;19925;-81
2021/06/01 03:30:53;;;;;;;;;;;;;;;;;;5018875;28;19925;-80
2021/06/01 03:33:22;;;;;;;;;;;;;;;;;;4998145;28;19936;-83
2021/06/01 03:35:50;;;;;;;;;;;;;;;;;;4998391;28;20193;-80
2021/06/01 03:38:18;;;;;;;;;;;;;;;;;;4999280;28;19929;-80
2021/06/01 03:40:45;;;;;;;;;;;;;;;;;;5035095;28;19922;-79
2021/06/01 03:43:13;;;;;;;;;;;;;;;;;;5015532;28;19929;-80
2021/06/01 03:45:41;;;;;;;;;;;;;;;;;;5003350;28;19929;-79
2021/06/01 03:48:09;;;;;;;;;;;;;;;;;;5003494;28;19928;-79
2021/06/01 03:50:38;;;;;;;;;;;;;;;;;;5003273;28;19921;-79
2021/06/01 03:53:06;;;;;;;;;;;;;;;;;;5003752;28;19928;-80
2021/06/01 03:55:34;;;;;;;;;;;;;;;;;;4984801;28;20299;-79
2021/06/01 03:58:02;;;;;;;;;;;;;;;;;;5011444;28;19932;-81
2021/06/01 04:00:30;;;;;;;;;;;;;;;;;;4966439;28;19933;-81
2021/06/01 04:02:58;;;;;;;;;;;;;;;;;;4997756;28;19929;-82
2021/06/01 04:05:26;;;;;;;;;;;;;;;;;;5016626;28;19929;-80
2021/06/01 04:07:55;;;;;;;;;;;;;;;;;;4996457;28;19936;-80
2021/06/01 04:10:23;;;;;;;;;;;;;;;;;;5006424;28;19921;-80
2021/06/01 04:12:51;;;;;;;;;;;;;;;;;;4997140;28;19933;-80
2021/06/01 04:15:20;;;;;;;;;;;;;;;;;;5008285;28;19930;-80
2021/06/01 04:17:48;;;;;;;;;;;;;;;;;;5005356;28;19922;-80
2021/06/01 04:20:18;;;;;;;;;;;;;;;;;;4983770;28;19933;-80
2021/06/01 04:22:46;;;;;;;;;;;;;;;;;;5012238;28;19929;-80
2021/06/01 04:25:16;;;;;;;;;;;;;;;;;;5002121;28;20248;-79
2021/06/01 04:27:44;;;;;;;;;;;;;;;;;;5009887;28;19922;-79
2021/06/01 04:30:13;;;;;;;;;;;;;;;;;;5008968;28;19932;-79
2021/06/01 04:32:41;;;;;;;;;;;;;;;;;;5002206;28;19928;-79
2021/06/01 04:35:10;;;;;;;;;;;;;;;;;;4992212;28;19922;-80
2021/06/01 04:37:38;;;;;;;;;;;;;;;;;;4994215;28;20032;-79
2021/06/01 04:40:09;;;;;;;;;;;;;;;;;;5005348;28;19929;-79
2021/06/01 04:42:38;;;;;;;;;;;;;;;;;;5007877;28;19921;-80
2021/06/01 04:45:07;;;;;;;;;;;;;;;;;;5004519;28;19922;-80
2021/06/01 04:47:35;;;;;;;;;;;;;;;;;;4992641;28;19940;-79
2021/06/01 04:50:03;;;;;;;;;;;;;;;;;;5001426;28;20299;-81
2021/06/01 04:52:31;;;;;;;;;;;;;;;;;;4998835;28;19936;-80
2021/06/01 04:54:59;;;;;;;;;;;;;;;;;;5010934;28;19922;-80
2021/06/01 04:57:26;;;;;;;;;;;;;;;;;;5023781;28;19935;-80
2021/06/01 04:59:56;;;;;;;;;;;;;;;;;;5002781;28;20711;-80
2021/06/01 05:02:23;;;;;;;;;;;;;;;;;;4966285;28;19921;-80
2021/06/01 05:04:51;;;;;;;;;;;;;;;;;;5016015;28;19928;-80
2021/06/01 05:07:19;;;;;;;;;;;;;;;;;;5002758;28;20440;-80
2021/06/01 05:09:47;;;;;;;;;;;;;;;;;;4997418;28;19922;-83
2021/06/01 05:12:15;;;;;;;;;;;;;;;;;;5009614;28;19921;-81
2021/06/01 05:14:42;;;;;;;;;;;;;;;;;;5001193;28;19925;-80
2021/06/01 05:17:12;;;;;;;;;;;;;;;;;;5013411;28;19932;-81
2021/06/01 05:19:40;;;;;;;;;;;;;;;;;;4995796;28;19922;-80
2021/06/01 05:22:07;;;;;;;;;;;;;;;;;;5002798;28;21201;-80
2021/06/01 05:24:35;;;;;;;;;;;;;;;;;;4991898;28;19932;-83
2021/06/01 05:27:03;;;;;;;;;;;;;;;;;;5012033;28;19938;-81
2021/06/01 05:29:33;;;;;;;;;;;;;;;;;;5015064;28;19921;-82
2021/06/01 05:32:06;;;;;;;;;;;;;;;;;;4994049;28;19922;-81
2021/06/01 05:34:37;;;;;;;;;;;;;;;;;;4981648;28;19921;-78
2021/06/01 05:37:05;;;;;;;;;;;;;;;;;;4992809;28;19951;-79
2021/06/01 05:39:32;;;;;;;;;;;;;;;;;;5018041;28;19928;-79
2021/06/01 05:42:00;;;;;;;;;;;;;;;;;;5004673;28;19944;-78
2021/06/01 05:44:29;;;;;;;;;;;;;;;;;;4996316;28;19925;-79
2021/06/01 05:46:57;;;;;;;;;;;;;;;;;;4987780;28;19925;-78
2021/06/01 05:49:25;;;;;;;;;;;;;;;;;;4993405;28;20012;-78
2021/06/01 05:51:54;;;;;;;;;;;;;;;;;;4991312;28;19925;-79
2021/06/01 05:54:22;;;;;;;;;;;;;;;;;;4983885;28;25032;-79
2021/06/01 05:56:50;;;;;;;;;;;;;;;;;;5003714;28;20209;-78
2021/06/01 05:59:18;;;;;;;;;;;;;;;;;;5002064;28;20364;-78
2021/06/01 06:01:46;;;;;;;;;;;;;;;;;;5007758;28;19922;-79
2021/06/01 06:04:14;;;;;;;;;;;;;;;;;;5023912;28;19928;-80
2021/06/01 06:06:42;;;;;;;;;;;;;;;;;;5026576;28;19922;-81
2021/06/01 06:09:12;;;;;;;;;;;;;;;;;;4983469;28;20259;-78
2021/06/01 06:11:40;;;;;;;;;;;;;;;;;;4989865;28;20236;-79
2021/06/01 06:14:08;;;;;;;;;;;;;;;;;;4985642;28;20371;-80
2021/06/01 06:16:40;;;;;;;;;;;;;;;;;;4990657;28;20279;-78
2021/06/01 06:19:09;;;;;;;;;;;;;;;;;;4989085;28;20307;-79
2021/06/01 06:21:37;;;;;;;;;;;;;;;;;;5005464;28;19921;-78
2021/06/01 06:24:05;;;;;;;;;;;;;;;;;;5004766;28;20303;-78
2021/06/01 06:26:35;;;;;;;;;;;;;;;;;;5001123;28;19921;-79
2021/06/01 06:29:04;;;;;;;;;;;;;;;;;;5017353;28;19930;-82
2021/06/01 06:31:32;;;;;;;;;;;;;;;;;;4988620;28;19931;-78
2021/06/01 06:34:01;;;;;;;;;;;;;;;;;;5007769;28;20367;-79
2021/06/01 06:36:29;;;;;;;;;;;;;;;;;;5020801;28;19921;-78
2021/06/01 06:38:57;;;;;;;;;;;;;;;;;;4987199;28;20383;-78
2021/06/01 06:41:25;;;;;;;;;;;;;;;;;;4985609;28;20470;-78
2021/06/01 06:43:55;;;;;;;;;;;;;;;;;;4991964;28;20383;-78
2021/06/01 06:46:26;;;;;;;;;;;;;;;;;;5007608;28;19926;-79
2021/06/01 06:48:54;;;;;;;;;;;;;;;;;;5004397;28;19925;-78
2021/06/01 06:51:23;;;;;;;;;;;;;;;;;;5008003;28;19921;-79
2021/06/01 06:53:52;;;;;;;;;;;;;;;;;;5003530;28;19921;-78
2021/06/01 06:56:21;;;;;;;;;;;;;;;;;;5007109;28;19921;-79
2021/06/01 06:58:49;;;;;;;;;;;;;;;;;;5000950;28;19929;-78
2021/06/01 07:01:18;;;;;;;;;;;;;;;;;;5006082;28;20290;-78
2021/06/01 07:03:46;;;;;;;;;;;;;;;;;;4989485;28;20303;-79
2021/06/01 07:06:15;;;;;;;;;;;;;;;;;;4988720;28;19921;-78
2021/06/01 07:08:43;;;;;;;;;;;;;;;;;;5006705;28;19926;-78
2021/06/01 07:11:11;;;;;;;;;;;;;;;;;;5008446;28;19932;-79
2021/06/01 07:13:42;;;;;;;;;;;;;;;;;;4988452;28;19925;-78
2021/06/01 07:16:10;;;;;;;;;;;;;;;;;;5017663;28;19921;-78
2021/06/01 07:18:40;;;;;;;;;;;;;;;;;;4987805;28;20299;-78
2021/06/01 07:21:08;;;;;;;;;;;;;;;;;;4990157;28;19932;-78
2021/06/01 07:23:36;;;;;;;;;;;;;;;;;;5004780;28;19926;-78
2021/06/01 07:26:04;;;;;;;;;;;;;;;;;;4990918;28;19929;-78
2021/06/01 07:28:32;;;;;;;;;;;;;;;;;;4988303;28;19936;-78
2021/06/01 07:31:00;;;;;;;;;;;;;;;;;;4986123;28;20390;-78
2021/06/01 07:33:28;;;;;;;;;;;;;;;;;;5018151;28;20260;-77
2021/06/01 07:35:58;;;;;;;;;;;;;;;;;;4993377;28;19921;-78
2021/06/01 07:38:26;;;;;;;;;;;;;;;;;;4989401;28;19929;-77
2021/06/01 07:40:54;;;;;;;;;;;;;;;;;;5006467;28;19932;-77
2021/06/01 07:43:22;;;;;;;;;;;;;;;;;;5004001;28;20287;-78
2021/06/01 07:45:50;;;;;;;;;;;;;;;;;;4974715;28;19928;-78
2021/06/01 07:48:18;;;;;;;;;;;;;;;;;;5013730;28;19910;-79
2021/06/01 07:50:46;;;;;;;;;;;;;;;;;;5039772;28;19918;-77
2021/06/01 07:53:16;;;;;;;;;;;;;;;;;;5016467;28;19928;-76
2021/06/01 07:55:43;;;;;;;;;;;;;;;;;;5013139;28;19926;-77
2021/06/01 07:58:11;;;;;;;;;;;;;;;;;;4988625;28;20395;-77
2021/06/01 08:00:39;;;;;;;;;;;;;;;;;;4993924;28;20410;-78
2021/06/01 08:03:07;;;;;;;;;;;;;;;;;;5005921;28;19928;-77
2021/06/01 08:05:34;;;;;;;;;;;;;;;;;;5003788;28;19928;-77
2021/06/01 08:08:02;;;;;;;;;;;;;;;;;;4998546;28;19936;-77
2021/06/01 08:10:32;;;;;;;;;;;;;;;;;;5003027;28;19925;-77
2021/06/01 08:13:01;;;;;;;;;;;;;;;;;;5020103;28;19922;-77
2021/06/01 08:15:29;;;;;;;;;;;;;;;;;;5003412;28;19921;-77
2021/06/01 08:18:00;;;;;;;;;;;;;;;;;;4993953;28;19922;-77
2021/06/01 08:20:32;;;;;;;;;;;;;;;;;;5005265;28;19926;-77
2021/06/01 08:22:59;;;;;;;;;;;;;;;;;;4998996;28;19928;-77
2021/06/01 08:25:27;;;;;;;;;;;;;;;;;;5003879;28;19921;-77
2021/06/01 08:27:57;;;;;;;;;;;;;;;;;;5002850;28;19928;-77
2021/06/01 08:30:26;;;;;;;;;;;;;;;;;;5007667;28;19922;-77
2021/06/01 08:32:54;;;;;;;;;;;;;;;;;;5024802;28;20295;-79
2021/06/01 08:35:22;;;;;;;;;;;;;;;;;;4991209;28;19931;-77
2021/06/01 08:37:50;;;;;;;;;;;;;;;;;;5003172;28;20342;-77
2021/06/01 08:40:18;;;;;;;;;;;;;;;;;;5003590;28;19921;-77
2021/06/01 08:42:46;;;;;;;;;;;;;;;;;;5003848;28;19921;-77
2021/06/01 08:45:16;;;;;;;;;;;;;;;;;;5020247;28;19925;-78
2021/06/01 08:47:44;;;;;;;;;;;;;;;;;;5005455;28;19925;-77
2021/06/01 08:50:12;;;;;;;;;;;;;;;;;;5006027;28;19933;-78
2021/06/01 08:52:40;;;;;;;;;;;;;;;;;;5000836;28;19929;-78
2021/06/01 08:55:09;;;;;;;;;;;;;;;;;;5004432;28;19937;-78
2021/06/01 08:57:37;;;;;;;;;;;;;;;;;;5016329;28;20271;-78
2021/06/01 09:00:06;;;;;;;;;;;;;;;;;;5013802;28;20383;-78
2021/06/01 09:02:35;;;;;;;;;;;;;;;;;;4989535;28;19925;-78
2021/06/01 09:05:06;;;;;;;;;;;;;;;;;;5008329;28;19928;-78
2021/06/01 09:07:39;;;;;;;;;;;;;;;;;;4996832;28;19925;-80
2021/06/01 09:10:23;;;;;;;;;;;;;;;;;;4991461;28;20378;-78
2021/06/01 09:13:04;;;;;;;;;;;;;;;;;;5016702;28;19929;-78
2021/06/01 09:15:50;;;;;;;;;;;;;;;;;;5008507;28;20283;-78
2021/06/01 09:21:12;;;;;;;;;;;;;;;;;;5018376;28;19921;-78
2021/06/01 09:23:49;;;;;;;;;;;;;;;;;;5001181;28;19922;-79
2021/06/01 09:26:36;;;;;;;;;;;;;;;;;;5014474;28;19922;-81
2021/06/01 09:29:04;;;;;;;;;;;;;;;;;;5000218;28;19929;-80
2021/06/01 09:31:32;;;;;;;;;;;;;;;;;;4989423;28;19936;-78
2021/06/01 09:34:02;;;;;;;;;;;;;;;;;;4989551;28;19921;-77
2021/06/01 09:36:30;;;;;;;;;;;;;;;;;;5018506;28;19929;-78
2021/06/01 09:38:58;;;;;;;;;;;;;;;;;;5006377;28;19929;-79
2021/06/01 09:41:26;;;;;;;;;;;;;;;;;;5005199;28;19929;-79
2021/06/01 09:43:55;;;;;;;;;;;;;;;;;;5004227;28;19925;-78
2021/06/01 09:46:23;;;;;;;;;;;;;;;;;;5002414;28;19928;-78
2021/06/01 09:48:51;;;;;;;;;;;;;;;;;;5010232;28;19921;-79
2021/06/01 09:51:31;;;;;;;;;;;;;;;;;;4997974;28;19928;-78
2021/06/01 09:54:14;;;;;;;;;;;;;;;;;;5016599;28;20177;-78
2021/06/01 09:56:42;;;;;;;;;;;;;;;;;;4998720;28;19922;-77
2021/06/01 09:59:10;;;;;;;;;;;;;;;;;;4993890;28;20383;-77
2021/06/01 10:01:38;;;;;;;;;;;;;;;;;;5001939;28;19925;-78
2021/06/01 10:04:05;;;;;;;;;;;;;;;;;;5008276;28;19926;-78
2021/06/01 10:06:34;;;;;;;;;;;;;;;;;;5007687;28;19921;-78
2021/06/01 10:09:10;;;;;;;;;;;;;;;;;;4985423;28;19925;-77
2021/06/01 10:11:38;;;;;;;;;;;;;;;;;;4990914;28;19922;-79
2021/06/01 10:14:06;;;;;;;;;;;;;;;;;;5003956;28;19921;-78
2021/06/01 10:16:35;;;;;;;;;;;;;;;;;;5007882;28;19921;-78
2021/06/01 10:19:04;;;;;;;;;;;;;;;;;;5009328;28;19922;-77
2021/06/01 10:21:34;;;;;;;;;;;;;;;;;;4995565;28;19925;-78
2021/06/01 10:24:02;;;;;;;;;;;;;;;;;;4997090;28;19930;-77
2021/06/01 10:26:30;;;;;;;;;;;;;;;;;;5007786;28;19922;-78
2021/06/01 10:28:59;;;;;;;;;;;;;;;;;;4994622;28;19921;-77
2021/06/01 10:31:39;;;;;;;;;;;;;;;;;;5006473;28;19925;-78
2021/06/01 10:34:09;;;;;;;;;;;;;;;;;;4989665;28;19985;-78
2021/06/01 10:50:49;;;;;;;;;;;;;;;;;;4946827;28;19922;-80
2021/06/01 10:53:20;;;;;;;;;;;;;;;;;;4989984;28;19921;-79
2021/06/01 10:55:55;;;;;;;;;;;;;;;;;;5008094;28;19928;-79
2021/06/01 10:58:26;;;;;;;;;;;;;;;;;;5026848;28;19929;-79
2021/06/01 11:04:04;;;;;;;;;;;;;;;;;;4988298;28;19948;-78
2021/06/01 11:06:47;;;;;;;;;;;;;;;;;;5005204;28;19925;-79
2021/06/01 11:09:30;;;;;;;;;;;;;;;;;;5000047;28;19929;-78
2021/06/01 11:11:59;;;;;;;;;;;;;;;;;;5003569;28;19937;-78
2021/06/01 11:14:31;;;;;;;;;;;;;;;;;;5006908;28;19936;-79
2021/06/01 11:16:59;;;;;;;;;;;;;;;;;;5003156;28;19927;-79
2021/06/01 11:19:47;;;;;;;4.83;3.67;;;;;;;;;;4985738;28;20433;-80
2021/06/01 11:22:22;;;;;;;4.10;3.70;;;;;;;;;;4982898;28;20228;-79
2021/06/01 11:25:14;;;;;;;3.90;3.50;;;;;;;;;;4984377;28;20216;-79
2021/06/01 11:33:23;;;;;;;3.50;3.20;;;;;;;;;;4990655;28;20316;-80
2021/06/01 11:36:00;;;;;;;4.03;3.60;;;;;;;;;;5002253;28;20225;-80
2021/06/01 11:38:34;;;;;;;3.63;3.33;;;;;;;;;;5015753;28;20233;-79
2021/06/01 11:41:21;;;;;;;4.50;3.63;;;;;;;;;;4999816;28;20250;-80
2021/06/01 11:43:52;;;;;;;4.07;3.67;;;;;;;;;;4987103;28;20231;-79
2021/06/01 11:46:28;;;;;;;3.83;3.40;;;;;;;;;;5001267;28;20224;-79
2021/06/01 11:51:43;;;;;;;4.20;3.80;;;;;;;;;;5000186;28;20609;-79
2021/06/01 11:54:14;;;;;;;4.30;3.67;;;;;;;;;;4986684;28;20232;-79
2021/06/01 11:56:49;;;;;;;3.90;3.60;;;;;;;;;;4986209;28;20213;-79
2021/06/01 12:18:59;;;;;;;5.18;3.70;;;;;;;;;;5006867;28;20740;-78
2021/06/01 12:21:31;;;;;;;4.45;3.75;;;;;;;;;;5005595;28;20694;-78
2021/06/01 12:24:02;;;;;;;3.90;3.45;;;;;;;;;;5006817;28;20598;-79
2021/06/01 12:26:36;;;;;;;4.43;4.03;;;;;;;;;;5004311;28;20229;-80
2021/06/01 12:32:03;;;;;;;3.53;3.33;;;;;;;;;;4986333;28;20229;-79
2021/06/01 12:34:44;;;;;;;3.22;2.97;;;;;;;;;;5005052;28;20243;-79
2021/06/01 13:09:15;;;;;;;3.33;3.08;;;;;;;;;;5006118;28;20220;-79
2021/06/01 13:14:43;;;;;;;3.20;2.55;;;;;;;;;;4997370;28;20224;-78
2021/06/01 13:19:59;;;;;;;2.88;2.78;;;;;;;;;;4964189;28;20242;-78
2021/06/01 13:22:45;;;;;;;3.00;2.80;;;;;;;;;;4987274;28;20229;-78
2021/06/01 13:31:40;;;;;;;3.30;3.05;;;;;;;;;;5008596;28;20233;-78
2021/06/01 13:37:15;;;;;;;3.53;3.00;;;;;;;;;;4999875;28;20776;-79
2021/06/01 13:39:47;;;;;;;2.78;2.47;;;;;;;;;;5012678;28;20240;-79
2021/06/01 13:47:54;;;;;;;4.72;4.40;;;;;;;;;;4994139;28;20232;-79
2021/06/01 13:50:41;;;;;;;3.17;2.97;;;;;;;;;;5000012;28;20236;-79
2021/06/01 13:55:57;;;;;;;3.83;2.50;;;;;;;;;;5001377;28;20239;-79
2021/06/01 13:58:39;;;;;;;2.42;2.25;;;;;;;;;;5026948;28;20225;-79
2021/06/01 14:01:12;;;;;;;3.85;2.70;;;;;;;;;;5006736;28;20255;-79
2021/06/01 14:09:37;;;;;;;2.88;2.67;;;;;;;;;;5011124;28;20236;-79
2021/06/01 14:15:25;;;;;;;2.72;2.40;;;;;;;;;;5009222;28;20229;-78
2021/06/01 14:21:11;;;;;;;2.60;2.40;;;;;;;;;;5009109;28;20225;-78
2021/06/01 15:23:11;;;;;;;2.97;2.60;;;;;;;;;;5002031;28;20216;-79
2021/06/01 15:28:50;;;;;;;2.65;2.40;;;;;;;;;;5018119;28;20241;-79
2021/06/01 15:31:39;;;;;;;4.57;2.35;;;;;;;;;;5011498;28;20912;-79
2021/06/01 15:48:28;;;;;;;2.47;2.38;;;;;;;;;;5005436;28;20731;-79
2021/06/01 15:51:05;;;;;;;3.33;3.13;;;;;;;;;;5004243;28;20631;-79
2021/06/01 15:53:43;;;;;;;2.67;2.47;;;;;;;;;;5007274;28;20235;-79
2021/06/01 16:13:19;;;;;;;2.60;2.40;;;;;;;;;;5008649;28;20245;-79
2021/06/01 16:21:28;;;;;;;2.50;2.30;;;;;;;;;;5010193;28;20235;-78
2021/06/01 16:29:43;;;;;;;2.92;2.40;;;;;;;;;;4984492;28;20228;-80
2021/06/01 16:32:29;;;;;;;2.85;2.53;;;;;;;;;;5013673;28;20687;-78
2021/06/01 16:43:31;;;;;;;3.10;2.30;;;;;;;;;;5010419;28;20255;-79
2021/06/01 17:05:40;;;;;;;3.00;2.00;;;;;;;;;;5010761;28;20232;-78
2021/06/01 17:11:12;;;;;;;3.35;2.20;;;;;;;;;;4972782;28;20309;-78
2021/06/01 17:13:44;;;;;;;2.30;2.10;;;;;;;;;;5010049;28;20312;-78
2021/06/01 17:16:20;;;;;;;4.18;2.50;;;;;;;;;;5001528;28;20236;-77
2021/06/01 17:36:02;;;;;;;2.40;2.20;;;;;;;;;;5020698;28;20227;-78
2021/06/01 17:38:31;;;;;;;2.80;2.60;;;;;;;;;;5033444;28;20226;-78
2021/06/01 17:41:03;;;;;;;2.67;2.30;;;;;;;;;;5013344;28;20274;-78
2021/06/01 17:43:32;;;;;;;3.35;2.40;;;;;;;;;;5046649;28;20224;-77
2021/06/01 17:46:03;;;;;;;6.38;2.30;;;;;;;;;;5024340;28;20233;-77
2021/06/01 17:48:48;;;;;;;2.50;1.90;;;;;;;;;;5026663;28;20211;-77
2021/06/01 17:51:17;;;;;;;3.38;2.33;;;;;;;;;;5016195;28;20750;-78
2021/06/01 17:53:48;;;;;;;2.65;2.33;;;;;;;;;;5036100;28;20230;-78
2021/06/01 17:56:19;;;;;;;5.32;2.30;;;;;;;;;;5048845;28;20875;-78
2021/06/01 17:58:48;;;;;;;3.58;2.25;;;;;;;;;;5029115;28;20228;-77
2021/06/01 18:01:17;;;;;;;2.60;2.40;;;;;;;;;;5051445;28;20232;-77
2021/06/01 18:03:50;;;;;;;5.30;2.85;;;;;;;;;;5029194;28;20230;-77
2021/06/01 18:06:19;;;;;;;2.88;2.40;;;;;;;;;;5033559;28;20234;-79
2021/06/01 18:08:55;;;;;;;3.00;2.45;;;;;;;;;;5039308;28;20227;-78
2021/06/01 18:11:52;;;;;;;4.50;2.38;;;;;;;;;;5030949;28;20227;-78
2021/06/01 18:37:19;;;;;;;3.25;2.70;;;;;;;;;;5051790;28;20655;-79
2021/06/01 19:05:58;;;;;;;;;;;;;;;;;;5029242;28;19932;-78
2021/06/01 19:22:50;;;;;;;;;;;;;;;;;;5021437;28;19921;-79
2021/06/01 19:25:15;;;;;;;;;;;;;;;;;;5035989;28;19921;-79
2021/06/01 19:50:17;;;;;;;;;;;;;;;;;;5031629;28;20307;-78
2021/06/01 19:52:47;;;;;;;;;;;;;;;;;;5039236;28;19932;-77
2021/06/01 19:55:16;;;;;;;;;;;;;;;;;;5044471;28;19928;-79
2021/06/01 19:57:44;;;;;;;;;;;;;;;;;;5044197;28;19920;-78
2021/06/01 20:00:13;;;;;;;;;;;;;;;;;;5074811;28;19928;-78
2021/06/01 20:02:42;;;;;;;;;;;;;;;;;;5064081;28;19925;-78
2021/06/01 20:05:10;;;;;;;;;;;;;;;;;;5038449;28;19924;-77
2021/06/01 20:07:38;;;;;;;;;;;;;;;;;;5074758;28;20303;-78
2021/06/01 20:10:09;;;;;;;;;;;;;;;;;;5051393;28;19924;-79
2021/06/01 20:12:37;;;;;;;;;;;;;;;;;;5029498;28;19921;-79
2021/06/01 20:15:06;;;;;;;;;;;;;;;;;;5038904;28;19925;-78
2021/06/01 20:17:34;;;;;;;;;;;;;;;;;;5072125;28;19952;-79
2021/06/01 20:20:04;;;;;;;;;;;;;;;;;;5036990;28;20409;-78
2021/06/01 20:22:33;;;;;;;;;;;;;;;;;;5039802;28;20386;-79
2021/06/01 20:25:01;;;;;;;;;;;;;;;;;;5030964;28;19928;-79
2021/06/01 20:27:31;;;;;;;;;;;;;;;;;;5058539;28;20367;-79
2021/06/01 20:30:02;;;;;;;;;;;;;;;;;;5033958;28;20416;-78
2021/06/01 20:35:17;;;;;;;;;;;;;;;;;;5028933;28;19928;-79
2021/06/01 20:37:45;;;;;;;;;;;;;;;;;;5041876;28;19920;-79
2021/06/01 20:40:14;;;;;;;;;;;;;;;;;;5063743;28;20397;-78
2021/06/01 20:42:44;;;;;;;;;;;;;;;;;;5035450;28;19921;-78
2021/06/01 20:45:13;;;;;;;;;;;;;;;;;;5035502;28;19944;-79
2021/06/01 20:47:42;;;;;;;;;;;;;;;;;;5026134;28;19920;-79
2021/06/01 20:50:10;;;;;;;;;;;;;;;;;;5033827;28;19924;-79
2021/06/01 20:52:39;;;;;;;;;;;;;;;;;;5092043;28;19925;-82
2021/06/01 20:55:07;;;;;;;;;;;;;;;;;;5036785;28;19921;-80
2021/06/01 20:57:38;;;;;;;;;;;;;;;;;;5056023;28;19928;-78
2021/06/01 21:00:08;;;;;;;;;;;;;;;;;;5051415;28;20282;-79
2021/06/01 21:02:38;;;;;;;;;;;;;;;;;;5029026;28;19921;-81
2021/06/01 21:05:07;;;;;;;;;;;;;;;;;;5052785;28;19925;-80
2021/06/01 21:07:36;;;;;;;;;;;;;;;;;;5054246;28;19932;-79
2021/06/01 21:10:06;;;;;;;;;;;;;;;;;;5058944;28;19921;-79
2021/06/01 21:12:34;;;;;;;;;;;;;;;;;;5060653;28;19920;-80
2021/06/01 21:15:03;;;;;;;;;;;;;;;;;;5047493;28;19936;-79
2021/06/01 21:17:32;;;;;;;;;;;;;;;;;;5028912;28;19924;-79
2021/06/01 21:20:00;;;;;;;;;;;;;;;;;;5033623;28;19928;-79
2021/06/01 21:22:29;;;;;;;;;;;;;;;;;;5061613;28;19929;-80
2021/06/01 21:24:57;;;;;;;;;;;;;;;;;;5080813;28;19920;-79
2021/06/01 21:27:25;;;;;;;;;;;;;;;;;;5043117;28;20271;-79
2021/06/01 21:29:53;;;;;;;;;;;;;;;;;;5038215;28;20401;-79
2021/06/01 21:32:24;;;;;;;;;;;;;;;;;;5032867;28;19943;-78
2021/06/01 21:34:54;;;;;;;;;;;;;;;;;;5026965;28;19924;-78
2021/06/01 21:37:23;;;;;;;;;;;;;;;;;;5041578;28;19921;-79
2021/06/01 21:39:51;;;;;;;;;;;;;;;;;;5048302;28;20525;-80
2021/06/01 21:42:19;;;;;;;;;;;;;;;;;;5026432;28;19928;-79
2021/06/01 21:44:47;;;;;;;;;;;;;;;;;;5032532;28;20307;-79
2021/06/01 21:47:15;;;;;;;;;;;;;;;;;;5030375;28;19921;-82
2021/06/01 21:49:43;;;;;;;;;;;;;;;;;;5047236;28;19921;-78
2021/06/01 21:52:12;;;;;;;;;;;;;;;;;;5054341;28;20406;-79
2021/06/01 21:54:40;;;;;;;;;;;;;;;;;;5041112;28;19932;-78
2021/06/01 21:57:08;;;;;;;;;;;;;;;;;;5023799;28;19940;-80
2021/06/01 21:59:36;;;;;;;;;;;;;;;;;;5019255;28;19921;-81
2021/06/01 22:02:04;;;;;;;;;;;;;;;;;;5051245;28;19928;-80
2021/06/01 22:04:33;;;;;;;;;;;;;;;;;;5049081;28;19932;-80
2021/06/01 22:07:05;;;;;;;;;;;;;;;;;;5061938;28;20788;-80
2021/06/01 22:09:35;;;;;;;;;;;;;;;;;;5072668;28;19921;-79
2021/06/01 22:12:04;;;;;;;;;;;;;;;;;;5061888;28;19932;-79
2021/06/01 22:14:32;;;;;;;;;;;;;;;;;;5051565;28;19927;-80
2021/06/01 22:17:04;;;;;;;;;;;;;;;;;;5073575;28;19929;-80
2021/06/01 22:19:35;;;;;;;;;;;;;;;;;;5081363;28;19933;-79
2021/06/01 22:22:03;;;;;;;;;;;;;;;;;;5089784;28;19927;-80
2021/06/01 22:24:31;;;;;;;;;;;;;;;;;;5075172;28;19931;-80
2021/06/01 22:27:01;;;;;;;;;;;;;;;;;;5033613;28;19920;-80
2021/06/01 22:29:29;;;;;;;;;;;;;;;;;;5042788;28;19920;-80
2021/06/01 22:31:57;;;;;;;;;;;;;;;;;;5045334;28;19921;-78
2021/06/01 22:34:25;;;;;;;;;;;;;;;;;;5032373;28;19928;-80
2021/06/01 22:36:53;;;;;;;;;;;;;;;;;;5058798;28;19928;-79
2021/06/01 22:39:21;;;;;;;;;;;;;;;;;;5042748;28;19935;-79
2021/06/01 22:41:49;;;;;;;;;;;;;;;;;;5020738;28;19929;-79
2021/06/01 22:44:18;;;;;;;;;;;;;;;;;;5065562;28;19921;-78
2021/06/01 22:46:46;;;;;;;;;;;;;;;;;;5036943;28;20315;-79
2021/06/01 22:49:14;;;;;;;;;;;;;;;;;;5047422;28;19925;-80